Time,TemperatureF,DewpointF,PressureIn,WindDirection,WindDirectionDegrees,WindSpeedMPH,WindSpeedGustMPH,Humidity,HourlyPrecipIn,Conditions,Clouds,dailyrainin,SoftwareType,DateUTC
2013-08-04 00:13:00,63.5,57.6,29.89,East,90,0.0,-999.0,81,-99.99,,,0.00,Acu-Link.com,2013-08-04 05:13:00,
2013-08-04 00:28:00,63.1,57.5,29.90,East,90,0.0,-999.0,82,-99.99,,,0.00,Acu-Link.com,2013-08-04 05:28:00,
2013-08-04 00:44:00,63.0,57.4,29.90,East,90,0.0,-999.0,82,-99.99,,,0.00,Acu-Link.com,2013-08-04 05:44:00,
2013-08-04 00:59:00,63.5,57.6,29.90,East,90,0.0,-999.0,81,-99.99,,,0.00,Acu-Link.com,2013-08-04 05:59:00,
2013-08-04 01:14:00,63.1,57.2,29.91,East,90,0.0,-999.0,81,-99.99,,,0.00,Acu-Link.com,2013-08-04 06:14:00,
2013-08-04 01:29:00,63.3,57.7,29.90,WNW,292,0.0,-999.0,82,-99.99,,,0.00,Acu-Link.com,2013-08-04 06:29:00,
2013-08-04 01:45:00,63.1,57.5,29.90,ESE,112,0.0,-999.0,82,-99.99,,,0.00,Acu-Link.com,2013-08-04 06:45:00,
2013-08-04 02:00:00,63.1,57.5,29.90,SSE,157,1.1,-999.0,82,-99.99,,,0.00,Acu-Link.com,2013-08-04 07:00:00,
2013-08-04 02:16:00,62.6,57.4,29.91,SW,225,0.0,-999.0,83,-99.99,,,0.00,Acu-Link.com,2013-08-04 07:16:00,
2013-08-04 02:31:00,61.9,56.3,29.91,SW,225,0.0,-999.0,82,-99.99,,,0.00,Acu-Link.com,2013-08-04 07:31:00,
2013-08-04 02:46:00,61.7,56.1,29.91,SW,225,0.0,-999.0,82,-99.99,,,0.00,Acu-Link.com,2013-08-04 07:46:00,
2013-08-04 03:02:00,61.2,56.3,29.91,SW,225,0.0,-999.0,84,-99.99,,,0.00,Acu-Link.com,2013-08-04 08:02:00,
2013-08-04 03:17:00,60.8,55.9,29.90,SW,225,0.0,-999.0,84,-99.99,,,0.00,Acu-Link.com,2013-08-04 08:17:00,
2013-08-04 03:32:00,60.8,55.9,29.90,SW,225,0.0,-999.0,84,-99.99,,,0.00,Acu-Link.com,2013-08-04 08:32:00,
2013-08-04 03:47:00,61.7,56.1,29.90,East,90,0.0,-999.0,82,-99.99,,,0.00,Acu-Link.com,2013-08-04 08:47:00,
2013-08-04 04:02:00,61.9,55.7,29.89,ESE,112,0.0,-999.0,80,-99.99,,,0.00,Acu-Link.com,2013-08-04 09:02:00,
2013-08-04 04:17:00,61.9,55.7,29.90,ESE,112,0.0,-999.0,80,-99.99,,,0.00,Acu-Link.com,2013-08-04 09:17:00,
2013-08-04 04:32:00,61.3,55.4,29.90,ESE,112,0.0,-999.0,81,-99.99,,,0.00,Acu-Link.com,2013-08-04 09:32:00,
2013-08-04 04:47:00,61.0,55.1,29.91,ESE,112,0.0,-999.0,81,-99.99,,,0.00,Acu-Link.com,2013-08-04 09:47:00,
2013-08-04 05:03:00,60.8,54.9,29.91,ESE,112,0.0,-999.0,81,-99.99,,,0.00,Acu-Link.com,2013-08-04 10:03:00,
2013-08-04 05:18:00,60.6,54.7,29.91,ESE,112,0.0,-999.0,81,-99.99,,,0.00,Acu-Link.com,2013-08-04 10:18:00,
2013-08-04 05:33:00,60.4,54.5,29.92,ESE,112,0.0,-999.0,81,-99.99,,,0.00,Acu-Link.com,2013-08-04 10:33:00,
2013-08-04 05:49:00,60.3,54.4,29.93,ESE,112,0.0,-999.0,81,-99.99,,,0.00,Acu-Link.com,2013-08-04 10:49:00,
2013-08-04 06:04:00,59.7,53.9,29.93,ESE,112,0.0,-999.0,81,-99.99,,,0.00,Acu-Link.com,2013-08-04 11:04:00,
2013-08-04 06:19:00,59.2,54.0,29.93,ESE,112,0.0,-999.0,83,-99.99,,,0.00,Acu-Link.com,2013-08-04 11:19:00,
2013-08-04 06:34:00,59.2,54.0,29.94,ESE,112,0.0,-999.0,83,-99.99,,,0.00,Acu-Link.com,2013-08-04 11:34:00,
2013-08-04 06:50:00,63.9,56.2,29.93,ESE,112,0.0,-999.0,76,-99.99,,,0.00,Acu-Link.com,2013-08-04 11:50:00,
2013-08-04 07:05:00,68.5,57.9,29.94,East,90,0.0,-999.0,69,-99.99,,,0.00,Acu-Link.com,2013-08-04 12:05:00,
2013-08-04 07:20:00,72.1,58.8,29.94,ENE,67,0.0,-999.0,63,-99.99,,,0.00,Acu-Link.com,2013-08-04 12:20:00,
2013-08-04 07:36:00,74.3,59.0,29.93,ENE,67,0.0,-999.0,59,-99.99,,,0.00,Acu-Link.com,2013-08-04 12:36:00,
2013-08-04 08:06:00,72.3,57.6,29.95,East,90,2.7,-999.0,60,-99.99,,,0.00,Acu-Link.com,2013-08-04 13:06:00,
2013-08-04 08:22:00,73.2,57.5,29.94,ESE,112,2.2,-999.0,58,-99.99,,,0.00,Acu-Link.com,2013-08-04 13:22:00,
2013-08-04 08:37:00,74.3,58.6,29.94,East,90,0.0,-999.0,58,-99.99,,,0.00,Acu-Link.com,2013-08-04 13:37:00,
2013-08-04 08:52:00,73.8,59.0,29.94,NE,45,0.0,-999.0,60,-99.99,,,0.00,Acu-Link.com,2013-08-04 13:52:00,
2013-08-04 09:08:00,75.7,59.9,29.94,NE,45,0.0,-999.0,58,-99.99,,,0.00,Acu-Link.com,2013-08-04 14:08:00,
2013-08-04 09:23:00,76.5,60.1,29.95,NE,45,0.0,-999.0,57,-99.99,,,0.00,Acu-Link.com,2013-08-04 14:23:00,
2013-08-04 09:38:00,76.5,60.6,29.94,ENE,67,0.0,-999.0,58,-99.99,,,0.00,Acu-Link.com,2013-08-04 14:38:00,
2013-08-04 09:53:00,76.5,60.1,29.95,NE,45,1.7,-999.0,57,-99.99,,,0.00,Acu-Link.com,2013-08-04 14:53:00,
2013-08-04 10:09:00,75.7,58.9,29.94,NNE,22,0.0,-999.0,56,-99.99,,,0.00,Acu-Link.com,2013-08-04 15:09:00,
2013-08-04 10:24:00,75.9,58.0,29.94,ENE,67,3.2,-999.0,54,-99.99,,,0.00,Acu-Link.com,2013-08-04 15:24:00,
2013-08-04 10:39:00,77.0,59.6,29.95,NNE,22,0.0,-999.0,55,-99.99,,,0.00,Acu-Link.com,2013-08-04 15:39:00,
2013-08-04 10:54:00,77.9,57.7,29.94,SSE,157,0.0,-999.0,50,-99.99,,,0.00,Acu-Link.com,2013-08-04 15:54:00,
2013-08-04 11:10:00,81.1,58.3,29.95,East,90,3.7,-999.0,46,-99.99,,,0.00,Acu-Link.com,2013-08-04 16:10:00,
2013-08-04 11:25:00,81.5,57.5,29.95,East,90,2.2,-999.0,44,-99.99,,,0.00,Acu-Link.com,2013-08-04 16:25:00,
2013-08-04 11:41:00,78.8,58.6,29.95,NW,315,0.0,-999.0,50,-99.99,,,0.00,Acu-Link.com,2013-08-04 16:41:00,
2013-08-04 11:56:00,78.6,56.7,29.94,NNE,22,0.0,-999.0,47,-99.99,,,0.00,Acu-Link.com,2013-08-04 16:56:00,
2013-08-04 12:11:00,77.0,53.4,29.94,SW,225,0.0,-999.0,44,-99.99,,,0.00,Acu-Link.com,2013-08-04 17:11:00,
2013-08-04 12:26:00,77.9,52.3,29.94,ESE,112,4.2,-999.0,41,-99.99,,,0.00,Acu-Link.com,2013-08-04 17:26:00,
2013-08-04 12:41:00,77.2,52.3,29.93,ESE,112,0.0,-999.0,42,-99.99,,,0.00,Acu-Link.com,2013-08-04 17:41:00,
2013-08-04 12:57:00,77.4,55.0,29.93,ESE,112,1.1,-999.0,46,-99.99,,,0.00,Acu-Link.com,2013-08-04 17:57:00,
2013-08-04 13:12:00,78.3,55.8,29.92,West,270,0.0,-999.0,46,-99.99,,,0.00,Acu-Link.com,2013-08-04 18:12:00,
2013-08-04 13:28:00,77.9,56.0,29.93,NNE,22,0.0,-999.0,47,-99.99,,,0.00,Acu-Link.com,2013-08-04 18:28:00,
2013-08-04 13:43:00,79.7,57.1,29.92,NE,45,0.0,-999.0,46,-99.99,,,0.00,Acu-Link.com,2013-08-04 18:43:00,
2013-08-04 13:58:00,83.5,55.9,29.91,NNE,22,0.0,-999.0,39,-99.99,,,0.00,Acu-Link.com,2013-08-04 18:58:00,
2013-08-04 14:14:00,88.7,55.0,29.91,ESE,112,0.0,-999.0,32,-99.99,,,0.00,Acu-Link.com,2013-08-04 19:14:00,
2013-08-04 14:29:00,89.8,54.2,29.91,ESE,112,0.0,-999.0,30,-99.99,,,0.00,Acu-Link.com,2013-08-04 19:29:00,
2013-08-04 14:44:00,90.5,51.9,29.91,East,90,4.2,-999.0,27,-99.99,,,0.00,Acu-Link.com,2013-08-04 19:44:00,
2013-08-04 14:59:00,90.0,53.4,29.89,NE,45,0.0,-999.0,29,-99.99,,,0.00,Acu-Link.com,2013-08-04 19:59:00,
2013-08-04 15:14:00,90.7,55.0,29.89,SE,135,0.0,-999.0,30,-99.99,,,0.00,Acu-Link.com,2013-08-04 20:14:00,
2013-08-04 15:30:00,93.6,55.5,29.90,ENE,67,0.0,-999.0,28,-99.99,,,0.00,Acu-Link.com,2013-08-04 20:30:00,
2013-08-04 15:45:00,94.5,56.3,29.90,WNW,292,0.0,-999.0,28,-99.99,,,0.00,Acu-Link.com,2013-08-04 20:45:00,
2013-08-04 16:00:00,92.3,56.3,29.89,ESE,112,4.2,-999.0,30,-99.99,,,0.00,Acu-Link.com,2013-08-04 21:00:00,
2013-08-04 16:15:00,88.0,56.1,29.90,East,90,3.2,-999.0,34,-99.99,,,0.00,Acu-Link.com,2013-08-04 21:15:00,
2013-08-04 16:30:00,90.7,55.9,29.89,SSE,157,0.0,-999.0,31,-99.99,,,0.00,Acu-Link.com,2013-08-04 21:30:00,
2013-08-04 16:46:00,87.4,55.6,29.89,ENE,67,3.7,-999.0,34,-99.99,,,0.00,Acu-Link.com,2013-08-04 21:46:00,
2013-08-04 17:01:00,82.4,55.6,29.88,ESE,112,0.0,-999.0,40,-99.99,,,0.00,Acu-Link.com,2013-08-04 22:01:00,
2013-08-04 17:16:00,79.5,55.7,29.87,NE,45,1.7,-999.0,44,-99.99,,,0.00,Acu-Link.com,2013-08-04 22:16:00,
2013-08-04 17:31:00,79.3,55.5,29.87,East,90,1.1,-999.0,44,-99.99,,,0.00,Acu-Link.com,2013-08-04 22:31:00,
2013-08-04 17:47:00,79.2,56.0,29.87,ENE,67,0.0,-999.0,45,-99.99,,,0.00,Acu-Link.com,2013-08-04 22:47:00,
2013-08-04 18:02:00,78.6,56.7,29.87,NNE,22,0.0,-999.0,47,-99.99,,,0.00,Acu-Link.com,2013-08-04 23:02:00,
2013-08-04 18:17:00,78.3,58.1,29.86,East,90,0.0,-999.0,50,-99.99,,,0.00,Acu-Link.com,2013-08-04 23:17:00,
2013-08-04 18:32:00,77.7,57.0,29.86,ENE,67,0.0,-999.0,49,-99.99,,,0.00,Acu-Link.com,2013-08-04 23:32:00,
2013-08-04 18:47:00,77.4,58.4,29.86,ENE,67,0.0,-999.0,52,-99.99,,,0.00,Acu-Link.com,2013-08-04 23:47:00,
2013-08-04 19:03:00,76.5,60.6,29.87,ENE,67,0.0,-999.0,58,-99.99,,,0.00,Acu-Link.com,2013-08-05 00:03:00,
2013-08-04 19:18:00,74.8,60.9,29.87,ENE,67,0.0,-999.0,62,-99.99,,,0.00,Acu-Link.com,2013-08-05 00:18:00,
2013-08-04 19:34:00,73.2,59.4,29.86,ENE,67,0.0,-999.0,62,-99.99,,,0.00,Acu-Link.com,2013-08-05 00:34:00,
2013-08-04 19:49:00,71.8,59.8,29.87,ENE,67,0.0,-999.0,66,-99.99,,,0.00,Acu-Link.com,2013-08-05 00:49:00,
2013-08-04 20:04:00,70.7,59.2,29.87,ENE,67,0.0,-999.0,67,-99.99,,,0.00,Acu-Link.com,2013-08-05 01:04:00,
2013-08-04 20:20:00,69.3,58.3,29.86,ENE,67,0.0,-999.0,68,-99.99,,,0.00,Acu-Link.com,2013-08-05 01:20:00,
2013-08-04 20:35:00,68.4,57.8,29.87,ENE,67,0.0,-999.0,69,-99.99,,,0.00,Acu-Link.com,2013-08-05 01:35:00,
2013-08-04 20:50:00,67.3,58.3,29.86,ENE,67,0.0,-999.0,73,-99.99,,,0.00,Acu-Link.com,2013-08-05 01:50:00,
2013-08-04 21:05:00,66.4,57.9,29.87,ENE,67,0.0,-999.0,74,-99.99,,,0.00,Acu-Link.com,2013-08-05 02:05:00,
2013-08-04 21:21:00,65.8,58.0,29.88,ENE,67,0.0,-999.0,76,-99.99,,,0.00,Acu-Link.com,2013-08-05 02:21:00,
2013-08-04 21:36:00,65.3,57.9,29.88,ENE,67,0.0,-999.0,77,-99.99,,,0.00,Acu-Link.com,2013-08-05 02:36:00,
2013-08-04 21:51:00,64.9,58.2,29.88,ENE,67,0.0,-999.0,79,-99.99,,,0.00,Acu-Link.com,2013-08-05 02:51:00,
2013-08-04 22:07:00,64.8,58.5,29.88,ENE,67,0.0,-999.0,80,-99.99,,,0.00,Acu-Link.com,2013-08-05 03:07:00,
2013-08-04 22:22:00,64.4,58.4,29.89,ENE,67,0.0,-999.0,81,-99.99,,,0.00,Acu-Link.com,2013-08-05 03:22:00,
2013-08-04 22:37:00,64.0,57.7,29.88,ENE,67,0.0,-999.0,80,-99.99,,,0.00,Acu-Link.com,2013-08-05 03:37:00,
2013-08-04 22:53:00,63.9,58.0,29.88,ENE,67,0.0,-999.0,81,-99.99,,,0.00,Acu-Link.com,2013-08-05 03:53:00,
2013-08-04 23:08:00,64.0,58.0,29.87,ENE,67,0.0,-999.0,81,-99.99,,,0.00,Acu-Link.com,2013-08-05 04:08:00,
2013-08-04 23:23:00,64.2,58.2,29.87,ENE,67,0.0,-999.0,81,-99.99,,,0.00,Acu-Link.com,2013-08-05 04:23:00,
2013-08-04 23:38:00,64.4,58.4,29.88,ENE,67,0.0,-999.0,81,-99.99,,,0.00,Acu-Link.com,2013-08-05 04:38:00,
2013-08-04 23:53:00,64.0,58.0,29.87,ENE,67,0.0,-999.0,81,-99.99,,,0.00,Acu-Link.com,2013-08-05 04:53:00,